1925 Tropical Low NOT_NAMED (1925169S20152)


IBTrACS version v04r00. Visit IBTrACS website for data access.
Please direct all questions to the IBTrACS Q and A forum

Storm track - Intensity - Wind Radii - Intensity Data - Source Data - All data

Summary Information

Storm ID 1925169S20152
Start Jun 18 05Z
Landfall Jun 19 03Z
Max Intensity 999 mb (Jun 18 23Z)
End Jun 22 23Z
ATCF IDs
Track status Best track data.

Storm track plot

Map of storm track

Intensity plots

Map of storm track

Radial wind information

No radial wind information for this storm


Position and Intensity Table

BASIN ISO_TIME_________ NATURE LAT LON WMO PRES BOM PRES
degrees north degrees east mb mb
SP 1925-06-18 05:00:00 NR -20.10 152.10
SP 06:00:00 NR -20.23 152.07
SP 09:00:00 NR -20.64 151.96
SP 12:00:00 NR -21.03 151.84
SP 15:00:00 NR -21.41 151.69
SP 18:00:00 NR -21.77 151.51
SP 21:00:00 NR -22.10 151.28
SP 23:00:00 NR -22.30 151.10 999 999
SP 1925-06-19 00:00:00 NR -22.40 151.00
SP 01:00:00 NR -22.50 150.90
SP 03:00:00 NR -22.77 150.68
SP 06:00:00 NR -23.27 150.38
SP 09:00:00 NR -23.82 150.21
SP 10:00:00 NR -24.00 150.20
SP 12:00:00 NR -24.36 150.24
SP 15:00:00 NR -24.86 150.48
SP 16:00:00 NR -25.00 150.60
SP 18:00:00 NR -25.23 150.89
SP 21:00:00 NR -25.48 151.44
SP 23:00:00 NR -25.60 151.80
SP 1925-06-20 00:00:00 NR -25.66 151.94
SP 03:00:00 NR -25.81 152.28
SP 06:00:00 NR -25.91 152.54
SP 09:00:00 NR -25.97 152.75
SP 12:00:00 NR -26.03 152.93
SP 15:00:00 NR -26.08 153.13
SP 16:00:00 NR -26.10 153.20
SP 18:00:00 NR -26.15 153.36
SP 21:00:00 NR -26.23 153.61
SP 23:00:00 NR -26.30 153.80
SP 1925-06-21 00:00:00 NR -26.33 153.91
SP 03:00:00 NR -26.45 154.28
SP 06:00:00 NR -26.59 154.70
SP 09:00:00 NR -26.76 155.18
SP 12:00:00 NR -26.97 155.70
SP 15:00:00 NR -27.21 156.25
SP 18:00:00 NR -27.50 156.82
SP 21:00:00 NR -27.84 157.40
SP 23:00:00 NR -28.10 157.80
SP 1925-06-22 00:00:00 NR -28.24 158.00
SP 03:00:00 NR -28.69 158.59
SP 06:00:00 NR -29.19 159.19
SP 09:00:00 NR -29.74 159.80
SP 12:00:00 NR -30.32 160.40
SP 15:00:00 NR -30.92 161.02
SP 18:00:00 NR -31.54 161.64
SP 21:00:00 NR -32.18 162.27
SP 23:00:00 NR -32.60 162.70

Source Information

Agency Information
USA
TOKYO
CMA
HKO
NEWDELHI
REUNION
BOM IDCKMSTM0S.csv:Line=549:unnamed
NADI
WELLINGTON
DS824
TD9636
TD9635
NEUMANN
MLC

All available IBTrACS Data

SEASON BASIN SUBBASIN ISO_TIME_________ NATURE LAT LON WMO PRES WMO AGENCY DIST2LAND LANDFALL IFLAG USA SSHS BOM LAT BOM LON BOM PRES BOM PRES_METHOD STORM SPEED STORM DIR
Year degrees north degrees east mb km km 1 degrees north degrees east mb kts degrees
1925 SP EA 1925-06-18 05:00:00 NR -20.10 152.10 bom 295 285 ______O_______ -1 -20.10 152.10 8 199
1925 SP EA 06:00:00 NR -20.23 152.07 285 242 ______P_______ -1 -20.23 152.07 8 193
1925 SP EA 09:00:00 NR -20.64 151.96 242 193 ______P_______ -1 -20.64 151.96 8 195
1925 SP EA 12:00:00 NR -21.03 151.84 193 152 ______P_______ -1 -21.03 151.84 8 198
1925 SP EA 15:00:00 NR -21.41 151.69 152 113 ______P_______ -1 -21.41 151.69 8 202
1925 SP EA 18:00:00 NR -21.77 151.51 106 68 ______P_______ -1 -21.77 151.51 8 209
1925 SP EA 21:00:00 NR -22.10 151.28 68 38 ______P_______ -1 -22.10 151.28 8 216
1925 SP EA 23:00:00 NR -22.30 151.10 999 bom 38 23 ______O_______ -1 -22.30 151.10 999 4 8 221
1925 SP EA 1925-06-19 00:00:00 NR -22.40 151.00 23 10 ______P_______ -1 -22.40 151.00 8 223
1925 SP EA 01:00:00 NR -22.50 150.90 bom 10 0 ______O_______ -1 -22.50 150.90 9 218
1925 SP EA 03:00:00 NR -22.77 150.68 0 0 ______P_______ -1 -22.77 150.68 11 212
1925 SP EA 06:00:00 NR -23.27 150.38 0 0 ______P_______ -1 -23.27 150.38 11 202
1925 SP EA 09:00:00 NR -23.82 150.21 0 0 ______P_______ -1 -23.82 150.21 11 193
1925 SP EA 10:00:00 NR -24.00 150.20 bom 0 0 ______O_______ -1 -24.00 150.20 11 176
1925 SP EA 12:00:00 NR -24.36 150.24 0 0 ______P_______ -1 -24.36 150.24 11 163
1925 SP EA 15:00:00 NR -24.86 150.48 0 0 ______P_______ -1 -24.86 150.48 11 153
1925 SP EA 16:00:00 NR -25.00 150.60 bom 0 0 ______O_______ -1 -25.00 150.60 11 135
1925 SP EA 18:00:00 NR -25.23 150.89 0 0 ______P_______ -1 -25.23 150.89 11 122
1925 SP EA 21:00:00 NR -25.48 151.44 0 0 ______P_______ -1 -25.48 151.44 11 114
1925 SP EA 23:00:00 NR -25.60 151.80 bom 0 0 ______O_______ -1 -25.60 151.80 10 112
1925 SP EA 1925-06-20 00:00:00 NR -25.66 151.94 0 0 ______P_______ -1 -25.66 151.94 7 116
1925 SP EA 03:00:00 NR -25.81 152.28 0 0 ______P_______ -1 -25.81 152.28 6 114
1925 SP EA 06:00:00 NR -25.91 152.54 0 0 ______P_______ -1 -25.91 152.54 5 111
1925 SP EA 09:00:00 NR -25.97 152.75 0 0 ______P_______ -1 -25.97 152.75 4 108
1925 SP EA 12:00:00 NR -26.03 152.93 0 0 ______P_______ -1 -26.03 152.93 4 107
1925 SP EA 15:00:00 NR -26.08 153.13 0 0 ______P_______ -1 -26.08 153.13 4 107
1925 SP EA 16:00:00 NR -26.10 153.20 bom 9 9 ______O_______ -1 -26.10 153.20 4 109
1925 SP EA 18:00:00 NR -26.15 153.36 29 29 ______P_______ -1 -26.15 153.36 5 110
1925 SP EA 21:00:00 NR -26.23 153.61 49 49 ______P_______ -1 -26.23 153.61 5 111
1925 SP EA 23:00:00 NR -26.30 153.80 bom 69 69 ______O_______ -1 -26.30 153.80 6 111
1925 SP EA 1925-06-21 00:00:00 NR -26.33 153.91 79 79 ______P_______ -1 -26.33 153.91 7 109
1925 SP EA 03:00:00 NR -26.45 154.28 119 119 ______P_______ -1 -26.45 154.28 8 110
1925 SP EA 06:00:00 NR -26.59 154.70 158 158 ______P_______ -1 -26.59 154.70 9 111
1925 SP EA 09:00:00 NR -26.76 155.18 200 200 ______P_______ -1 -26.76 155.18 10 113
1925 SP EA 12:00:00 NR -26.97 155.70 243 243 ______P_______ -1 -26.97 155.70 11 115
1925 SP EA 15:00:00 NR -27.21 156.25 279 279 ______P_______ -1 -27.21 156.25 11 118
1925 SP EA 18:00:00 NR -27.50 156.82 323 323 ______P_______ -1 -27.50 156.82 12 121
1925 SP EA 21:00:00 NR -27.84 157.40 375 373 ______P_______ -1 -27.84 157.40 13 125
1925 SP EA 23:00:00 NR -28.10 157.80 bom 411 411 ______O_______ -1 -28.10 157.80 13 127
1925 SP EA 1925-06-22 00:00:00 NR -28.24 158.00 430 430 ______P_______ -1 -28.24 158.00 14 130
1925 SP EA 03:00:00 NR -28.69 158.59 486 486 ______P_______ -1 -28.69 158.59 14 132
1925 SP EA 06:00:00 NR -29.19 159.19 544 544 ______P_______ -1 -29.19 159.19 15 135
1925 SP EA 09:00:00 NR -29.74 159.80 606 606 ______P_______ -1 -29.74 159.80 15 137
1925 SP MM 12:00:00 NR -30.32 160.40 674 674 ______P_______ -1 -30.32 160.40 16 138
1925 SP MM 15:00:00 NR -30.92 161.02 745 745 ______P_______ -1 -30.92 161.02 16 139
1925 SP MM 18:00:00 NR -31.54 161.64 807 807 ______P_______ -1 -31.54 161.64 17 140
1925 SP MM 21:00:00 NR -32.18 162.27 877 877 ______P_______ -1 -32.18 162.27 17 140
1925 SP MM 23:00:00 NR -32.60 162.70 bom 920 ______O_______ -1 -32.60 162.70 17 140